Time;durP1;ratioP1;P1;durP2;ratioP2;P2;SDS_P1;SDS_P2;PMS_P1;PMS_P2;Temp;Humidity;BMP_temperature;BMP_pressure;BME280_temperature;BME280_humidity;BME280_pressure;Samples;Min_cycle;Max_cycle;Signal;HPM_P1;HPM_P2
2023/08/30 00:01:05;;;;;;;4.15;3.30;;;;;;;15.78;75.61;100357.31;15599503;28;20079;-53
2023/08/30 00:08:40;;;;;;;5.25;3.13;;;;;;;15.44;76.23;100343.94;15593345;28;20099;-50
2023/08/30 00:16:14;;;;;;;5.22;3.22;;;;;;;15.55;75.74;100348.38;15600243;28;20536;-49
2023/08/30 00:23:49;;;;;;;5.65;3.50;;;;;;;15.54;75.51;100352.16;15618177;28;20068;-53
2023/08/30 00:31:22;;;;;;;5.68;2.83;;;;;;;15.54;75.25;100348.63;15620043;28;20042;-52
2023/08/30 00:38:56;;;;;;;5.30;3.45;;;;;;;15.19;76.18;100341.69;15581298;28;20502;-48
2023/08/30 00:46:30;;;;;;;3.67;3.05;;;;;;;14.98;77.56;100350.63;15613003;28;20053;-51
2023/08/30 00:54:05;;;;;;;;;;;;;;;14.57;78.75;100344.59;15604433;28;20049;-48
2023/08/30 01:01:39;;;;;;;5.53;3.47;;;;;;;14.59;79.52;100355.97;15593499;28;19925;-50
2023/08/30 01:09:16;;;;;;;5.45;3.95;;;;;;;14.73;78.72;100364.53;15566144;28;20053;-48
2023/08/30 01:16:50;;;;;;;8.02;3.55;;;;;;;14.87;78.05;100359.63;15583511;28;20048;-51
2023/08/30 01:24:30;;;;;;;4.47;3.15;;;;;;;14.71;78.15;100358.59;15586019;28;20065;-49
2023/08/30 01:32:06;;;;;;;4.55;2.88;;;;;;;14.62;78.74;100366.28;15577323;28;20090;-50
2023/08/30 01:39:41;;;;;;;6.35;3.50;;;;;;;14.29;79.75;100385.94;15589406;28;20068;-51
2023/08/30 01:47:16;;;;;;;7.05;3.78;;;;;;;14.01;81.21;100374.13;15595123;28;20137;-49
2023/08/30 01:54:53;;;;;;;6.78;4.57;;;;;;;13.91;82.30;100371.25;15582560;28;20088;-50
2023/08/30 02:02:31;;;;;;;8.20;4.40;;;;;;;13.98;81.09;100369.19;15575125;28;20088;-49
2023/08/30 02:10:09;;;;;;;6.75;4.75;;;;;;;13.67;83.28;100370.50;15576695;28;20133;-49
2023/08/30 02:17:49;;;;;;;10.25;4.85;;;;;;;13.82;81.74;100364.59;15581425;28;20384;-49
2023/08/30 02:25:24;;;;;;;6.30;5.18;;;;;;;14.07;81.65;100366.13;15611046;28;20123;-49
2023/08/30 02:32:58;;;;;;;8.90;5.88;;;;;;;14.43;80.50;100364.84;15594942;28;20108;-50
2023/08/30 02:40:32;;;;;;;10.45;5.78;;;;;;;14.21;81.71;100352.06;15604023;28;20406;-49
2023/08/30 02:48:08;;;;;;;9.85;5.97;;;;;;;14.60;79.41;100341.41;15602184;28;20167;-50
2023/08/30 02:55:41;;;;;;;7.82;5.70;;;;;;;14.84;77.96;100339.34;15594791;28;20111;-50
2023/08/30 03:03:19;;;;;;;7.15;6.30;;;;;;;15.05;76.76;100341.25;15582984;28;20038;-53
2023/08/30 03:10:53;;;;;;;7.93;6.50;;;;;;;14.97;76.28;100327.38;15592829;28;20053;-50
2023/08/30 03:18:28;;;;;;;10.07;5.90;;;;;;;15.13;75.40;100325.66;15588986;28;20068;-50
2023/08/30 03:26:09;;;;;;;9.93;6.45;;;;;;;14.86;75.46;100331.78;15590632;28;20052;-52
2023/08/30 03:33:45;;;;;;;12.98;6.05;;;;;;;14.44;77.51;100331.38;15571560;28;20084;-49
2023/08/30 03:41:23;;;;;;;7.15;5.25;;;;;;;14.52;78.16;100331.81;15574051;28;20137;-54
2023/08/30 03:48:57;;;;;;;7.75;5.55;;;;;;;14.40;79.00;100336.44;15585866;28;20087;-48
2023/08/30 03:56:36;;;;;;;6.63;5.57;;;;;;;13.92;81.03;100331.59;15598539;28;20046;-47
2023/08/30 04:04:15;;;;;;;6.55;5.03;;;;;;;14.51;79.20;100335.59;15592445;28;20043;-46
2023/08/30 04:11:48;;;;;;;8.23;5.30;;;;;;;14.48;78.92;100319.06;15597109;28;20086;-48
2023/08/30 04:19:22;;;;;;;8.73;5.93;;;;;;;14.64;78.42;100322.81;15585626;28;20057;-45
2023/08/30 04:26:56;;;;;;;8.93;5.22;;;;;;;14.52;78.98;100336.41;15589933;28;20053;-50
2023/08/30 04:34:31;;;;;;;10.02;5.20;;;;;;;15.07;77.04;100349.13;15608168;28;20041;-48
2023/08/30 04:42:08;;;;;;;8.48;5.95;;;;;;;15.34;76.46;100356.47;15617447;28;20426;-46
2023/08/30 04:49:44;;;;;;;7.55;6.20;;;;;;;15.44;76.14;100367.44;15617099;28;20445;-45
2023/08/30 04:57:19;;;;;;;7.10;6.45;;;;;;;15.45;75.57;100364.50;15617401;28;20545;-44
2023/08/30 05:04:57;;;;;;;8.32;7.00;;;;;;;15.80;74.94;100369.50;15616251;28;20140;-51
2023/08/30 05:12:32;;;;;;;11.55;8.27;;;;;;;15.75;75.25;100374.88;15613238;28;20053;-47
2023/08/30 05:20:13;;;;;;;8.70;7.80;;;;;;;15.64;76.00;100380.44;15615652;28;20030;-47
2023/08/30 05:27:47;;;;;;;9.73;8.73;;;;;;;15.37;76.30;100373.03;15614474;28;20133;-46
2023/08/30 05:35:22;;;;;;;9.10;8.20;;;;;;;15.69;75.81;100367.78;15614415;28;20041;-47
2023/08/30 05:43:02;;;;;;;9.98;8.48;;;;;;;15.77;75.17;100361.09;15616203;28;20482;-46
2023/08/30 05:50:37;;;;;;;10.70;9.23;;;;;;;15.79;76.17;100365.19;15614339;28;20041;-45
2023/08/30 05:58:10;;;;;;;10.75;9.65;;;;;;;16.15;76.67;100360.13;15613272;28;20413;-45
2023/08/30 06:05:48;;;;;;;11.38;9.88;;;;;;;15.51;80.05;100349.94;15612946;28;20048;-48
2023/08/30 06:13:21;;;;;;;12.48;8.60;;;;;;;15.39;80.08;100341.16;15611380;28;20045;-52
2023/08/30 06:20:58;;;;;;;10.25;8.98;;;;;;;14.98;82.02;100350.63;15611367;28;20046;-47
2023/08/30 06:28:31;;;;;;;10.93;8.85;;;;;;;15.52;80.73;100339.94;15598426;28;20042;-49
2023/08/30 06:36:06;;;;;;;9.35;8.00;;;;;;;15.41;79.61;100324.66;15599852;28;20057;-50
2023/08/30 06:43:39;;;;;;;11.43;8.85;;;;;;;16.18;78.58;100332.56;15564161;28;20461;-47
2023/08/30 06:51:14;;;;;;;10.82;8.60;;;;;;;16.22;78.14;100325.53;15564856;28;20092;-49
2023/08/30 06:58:47;;;;;;;9.43;7.72;;;;;;;16.35;76.96;100324.28;15569899;28;20066;-48
2023/08/30 07:06:24;;;;;;;8.50;7.60;;;;;;;16.15;77.63;100324.13;15543024;28;20061;-49
2023/08/30 07:13:57;;;;;;;9.68;7.65;;;;;;;15.86;78.73;100327.09;15563001;28;20046;-52
2023/08/30 07:21:32;;;;;;;;;;;;;;;16.30;77.85;100329.66;15562517;28;20095;-48
2023/08/30 07:29:06;;;;;;;9.90;7.97;;;;;;;16.94;75.94;100324.19;15562476;28;19937;-45
2023/08/30 07:36:43;;;;;;;9.65;8.57;;;;;;;16.53;76.65;100325.78;15539270;28;20104;-47
2023/08/30 07:44:17;;;;;;;14.35;9.02;;;;;;;17.18;74.37;100321.88;15585871;28;20057;-50
2023/08/30 07:51:51;;;;;;;10.80;8.15;;;;;;;17.02;74.16;100328.28;15582962;28;20452;-49
2023/08/30 07:59:28;;;;;;;8.95;6.10;;;;;;;17.22;73.07;100328.41;15568886;28;20116;-49
2023/08/30 08:07:06;;;;;;;7.05;5.05;;;;;;;17.23;72.87;100323.78;15579636;28;20072;-52
2023/08/30 08:14:49;;;;;;;7.95;5.18;;;;;;;17.78;70.34;100331.34;15570980;28;20037;-55
2023/08/30 08:22:24;;;;;;;5.45;4.18;;;;;;;17.74;69.17;100327.53;15589193;28;20136;-46
2023/08/30 08:30:00;;;;;;;6.00;4.00;;;;;;;18.01;67.46;100327.31;15577817;28;20049;-47
2023/08/30 08:37:35;;;;;;;5.20;3.97;;;;;;;18.44;67.72;100329.78;15606002;28;20041;-47
2023/08/30 08:45:12;;;;;;;4.82;3.97;;;;;;;18.05;68.17;100328.41;15617180;28;20073;-49
2023/08/30 08:52:47;;;;;;;7.05;4.80;;;;;;;18.04;69.58;100324.03;15618100;28;20041;-50
2023/08/30 09:00:21;;;;;;;5.75;4.40;;;;;;;18.36;69.38;100323.78;15618014;28;20471;-57
2023/08/30 09:07:55;;;;;;;6.70;4.40;;;;;;;19.27;65.17;100322.03;15617329;28;20115;-47
2023/08/30 09:15:34;;;;;;;8.52;4.32;;;;;;;19.17;65.34;100313.91;15577352;28;20041;-45
2023/08/30 09:23:18;;;;;;;5.63;4.07;;;;;;;20.20;62.74;100306.00;15568266;28;20050;-54
2023/08/30 09:30:52;;;;;;;6.38;3.85;;;;;;;20.08;62.01;100309.06;15574323;28;20282;-50
2023/08/30 09:38:27;;;;;;;5.65;3.55;;;;;;;20.22;61.11;100306.50;15571054;28;20093;-45
2023/08/30 09:46:04;;;;;;;4.55;3.08;;;;;;;21.20;58.63;100304.47;15573476;28;20045;-55
2023/08/30 09:53:44;;;;;;;3.20;2.30;;;;;;;21.20;60.83;100297.09;15559737;28;20069;-53
2023/08/30 10:01:18;;;;;;;4.38;2.20;;;;;;;22.31;56.79;100287.63;15603024;28;20041;-54
2023/08/30 10:08:55;;;;;;;2.42;1.40;;;;;;;22.90;54.27;100273.16;15597468;28;20402;-51
2023/08/30 10:16:38;;;;;;;3.67;1.70;;;;;;;21.40;54.57;100271.47;15599785;28;20409;-53
2023/08/30 10:24:17;;;;;;;3.08;1.40;;;;;;;20.54;56.02;100259.63;15601299;28;20374;-50
2023/08/30 10:31:51;;;;;;;2.40;1.80;;;;;;;20.96;57.24;100263.56;15592627;28;20479;-53
2023/08/30 10:39:34;;;;;;;4.40;1.67;;;;;;;20.98;54.26;100274.97;15597533;28;20045;-58
2023/08/30 10:47:08;;;;;;;4.25;1.77;;;;;;;20.09;56.20;100273.34;15599849;28;20143;-51
2023/08/30 10:54:43;;;;;;;3.20;1.67;;;;;;;20.28;57.84;100280.84;15597267;28;20053;-53
2023/08/30 11:02:17;;;;;;;5.47;1.75;;;;;;;21.31;57.25;100286.88;15579127;28;20077;-54
2023/08/30 11:09:52;;;;;;;3.58;1.60;;;;;;;19.87;57.36;100286.63;15576583;28;20073;-55
2023/08/30 11:17:27;;;;;;;3.78;1.60;;;;;;;20.80;55.06;100284.75;15585888;28;20053;-54
2023/08/30 11:25:02;;;;;;;2.25;1.40;;;;;;;21.00;55.60;100270.06;15595233;28;20053;-56
2023/08/30 11:32:39;;;;;;;2.75;1.55;;;;;;;20.65;55.48;100277.50;15593420;28;20406;-55
2023/08/30 11:40:14;;;;;;;2.28;1.50;;;;;;;20.88;55.32;100270.44;15596445;28;20087;-53
2023/08/30 11:47:53;;;;;;;2.83;1.70;;;;;;;20.07;55.22;100272.84;15595015;28;20073;-55
2023/08/30 11:55:31;;;;;;;2.70;1.63;;;;;;;20.14;56.56;100269.78;15611020;28;20445;-56
2023/08/30 12:03:06;;;;;;;5.20;1.58;;;;;;;20.52;57.03;100267.31;15608490;28;20049;-57
2023/08/30 12:10:39;;;;;;;3.95;1.38;;;;;;;19.57;56.35;100276.69;15608689;28;20557;-57
2023/08/30 12:18:12;;;;;;;2.45;1.60;;;;;;;20.06;55.72;100270.41;15607916;28;20187;-51
2023/08/30 12:25:58;;;;;;;2.92;1.70;;;;;;;20.91;55.26;100258.97;15614425;28;20187;-53
2023/08/30 12:33:32;;;;;;;2.13;1.27;;;;;;;21.90;51.01;100247.25;15609612;28;20038;-57
2023/08/30 12:41:06;;;;;;;5.07;1.20;;;;;;;22.32;51.17;100246.28;15577324;28;20621;-55
2023/08/30 12:48:39;;;;;;;4.45;1.50;;;;;;;21.72;50.64;100239.88;15581857;28;20049;-58
2023/08/30 12:56:14;;;;;;;3.15;1.50;;;;;;;22.21;50.17;100233.91;15610553;28;20510;-58
2023/08/30 13:03:48;;;;;;;3.90;1.45;;;;;;;22.03;50.28;100230.09;15575855;28;20049;-56
2023/08/30 13:11:26;;;;;;;3.30;1.40;;;;;;;22.21;49.40;100222.19;15587060;28;20045;-58
2023/08/30 13:19:00;;;;;;;129.18;86.60;;;;;;;21.30;51.96;100227.91;15601056;28;20132;-57
2023/08/30 13:26:35;;;;;;;2.78;1.70;;;;;;;21.55;53.34;100224.84;15608647;28;20047;-53
2023/08/30 13:34:08;;;;;;;2.67;1.50;;;;;;;21.99;50.80;100217.31;15601711;28;20052;-58
2023/08/30 13:41:42;;;;;;;3.55;1.20;;;;;;;22.02;51.08;100212.06;15590215;28;20058;-57
2023/08/30 13:49:20;;;;;;;2.75;1.40;;;;;;;22.66;48.66;100207.66;15600258;28;20120;-56
2023/08/30 13:57:07;;;;;;;3.03;1.45;;;;;;;22.31;50.27;100211.06;15594575;28;20083;-58
2023/08/30 14:04:42;;;;;;;3.85;1.70;;;;;;;22.51;46.80;100204.38;15604975;28;20375;-58
2023/08/30 14:12:17;;;;;;;4.35;1.48;;;;;;;22.46;46.41;100196.28;15603465;28;20065;-56
2023/08/30 14:19:59;;;;;;;3.97;1.52;;;;;;;22.02;49.43;100198.41;15610993;28;20438;-56
2023/08/30 14:27:33;;;;;;;3.85;1.60;;;;;;;21.38;49.59;100199.97;15602306;28;20133;-54
2023/08/30 14:35:08;;;;;;;2.22;1.60;;;;;;;21.31;47.97;100192.16;15580203;28;20132;-51
2023/08/30 14:42:43;;;;;;;2.60;1.60;;;;;;;21.36;48.40;100194.00;15587840;28;20136;-54
2023/08/30 14:50:16;;;;;;;2.33;1.70;;;;;;;20.97;49.51;100191.50;15590675;28;20056;-56
2023/08/30 14:57:54;;;;;;;3.80;1.60;;;;;;;20.69;50.13;100196.75;15597269;28;20046;-55
2023/08/30 15:05:28;;;;;;;2.70;1.58;;;;;;;20.60;50.45;100185.66;15585301;28;20030;-55
2023/08/30 15:13:06;;;;;;;6.10;3.30;;;;;;;20.58;49.68;100184.34;15571440;28;20517;-56
2023/08/30 15:20:39;;;;;;;3.67;1.38;;;;;;;20.21;49.88;100185.78;15581298;28;20058;-57
2023/08/30 15:28:15;;;;;;;4.03;1.50;;;;;;;20.69;48.87;100171.41;15608817;28;20405;-55
2023/08/30 15:35:49;;;;;;;4.47;1.40;;;;;;;21.29;47.65;100177.94;15608547;28;20126;-57
2023/08/30 15:43:26;;;;;;;4.40;1.70;;;;;;;20.98;49.34;100176.75;15608913;28;20041;-55
2023/08/30 15:51:00;;;;;;;3.78;1.70;;;;;;;20.76;50.31;100174.59;15577584;28;20045;-50
2023/08/30 15:58:34;;;;;;;3.35;1.73;;;;;;;20.88;51.45;100169.50;15608151;28;20041;-46
2023/08/30 16:06:08;;;;;;;2.85;1.70;;;;;;;20.31;53.66;100173.97;15607494;28;20057;-54
2023/08/30 16:13:43;;;;;;;2.35;1.40;;;;;;;20.28;53.97;100180.78;15605894;28;20187;-46
2023/08/30 16:21:16;;;;;;;2.72;1.60;;;;;;;20.34;53.86;100176.13;15607998;28;20067;-52
2023/08/30 16:28:51;;;;;;;3.45;2.00;;;;;;;20.15;54.72;100177.97;15608443;28;20458;-48
2023/08/30 16:36:24;;;;;;;4.95;1.73;;;;;;;20.42;53.60;100175.47;15614996;28;20486;-53
2023/08/30 16:44:01;;;;;;;3.35;1.75;;;;;;;20.14;54.23;100177.13;15616887;28;20100;-47
2023/08/30 16:51:35;;;;;;;2.63;1.67;;;;;;;20.39;53.62;100174.16;15616770;28;20083;-51
2023/08/30 16:59:11;;;;;;;2.25;1.67;;;;;;;20.30;54.39;100162.25;15615865;28;20105;-51
2023/08/30 17:06:44;;;;;;;4.00;2.22;;;;;;;20.21;54.46;100164.00;15609406;28;20053;-53
2023/08/30 17:14:19;;;;;;;3.50;1.83;;;;;;;20.28;55.02;100161.72;15600532;28;20050;-48
2023/08/30 17:21:55;;;;;;;2.42;1.85;;;;;;;20.17;55.86;100153.97;15606003;28;20482;-48
2023/08/30 17:29:33;;;;;;;5.25;1.88;;;;;;;19.86;58.52;100154.22;15608265;28;20053;-47
2023/08/30 17:37:13;;;;;;;4.50;2.10;;;;;;;19.93;57.87;100153.91;15614549;28;20052;-47
2023/08/30 17:44:54;;;;;;;3.45;2.13;;;;;;;19.66;59.04;100155.22;15609712;28;20076;-49
2023/08/30 17:52:32;;;;;;;2.88;1.50;;;;;;;19.68;58.46;100144.88;15601756;28;20128;-52
2023/08/30 18:00:09;;;;;;;5.90;2.17;;;;;;;19.40;59.27;100154.59;15577258;28;20084;-45
2023/08/30 18:07:45;;;;;;;3.45;2.20;;;;;;;18.78;59.77;100170.44;15597172;28;20497;-53
2023/08/30 18:15:20;;;;;;;4.13;2.15;;;;;;;19.04;58.74;100175.75;15611162;28;20053;-46
2023/08/30 18:22:53;;;;;;;4.25;2.25;;;;;;;18.78;59.63;100169.63;15590558;28;20094;-55
2023/08/30 18:30:28;;;;;;;3.60;1.98;;;;;;;18.62;60.48;100168.84;15554728;28;20400;-46
2023/08/30 18:38:05;;;;;;;6.95;2.33;;;;;;;18.42;61.31;100174.34;15590819;28;20064;-46
2023/08/30 18:45:48;;;;;;;3.95;2.42;;;;;;;18.25;61.44;100178.19;15583331;28;20121;-48
2023/08/30 18:53:21;;;;;;;3.55;2.42;;;;;;;17.94;62.13;100182.84;15577103;28;20045;-48
2023/08/30 19:00:55;;;;;;;3.75;2.45;;;;;;;18.28;61.16;100176.84;15582280;28;20052;-50
2023/08/30 19:08:31;;;;;;;3.92;2.40;;;;;;;17.96;62.01;100172.53;15577274;28;20132;-47
2023/08/30 19:16:07;;;;;;;5.28;3.05;;;;;;;17.84;62.77;100166.56;15575658;28;20418;-49
2023/08/30 19:23:44;;;;;;;4.25;2.65;;;;;;;17.91;61.55;100166.31;15591501;28;20403;-47
2023/08/30 19:31:21;;;;;;;3.72;2.58;;;;;;;17.84;61.50;100161.94;15573978;28;20038;-48
2023/08/30 19:38:55;;;;;;;4.07;2.53;;;;;;;17.57;62.32;100164.06;15573277;28;20104;-48
2023/08/30 19:46:33;;;;;;;2.85;2.13;;;;;;;17.68;60.79;100165.72;15577028;28;20046;-46
2023/08/30 19:54:08;;;;;;;3.97;2.20;;;;;;;18.04;60.54;100174.69;15587346;28;20217;-45
2023/08/30 20:01:47;;;;;;;2.88;1.83;;;;;;;17.66;60.74;100169.78;15602787;28;20157;-45
2023/08/30 20:09:21;;;;;;;3.17;2.05;;;;;;;17.77;61.59;100166.84;15619088;28;20120;-53
2023/08/30 20:16:55;;;;;;;3.17;1.88;;;;;;;17.84;60.68;100159.22;15601060;28;20449;-50
2023/08/30 20:24:30;;;;;;;4.20;2.47;;;;;;;17.47;62.65;100156.75;15603382;28;20050;-47
2023/08/30 20:32:06;;;;;;;3.15;2.10;;;;;;;17.37;62.74;100156.75;15614941;28;20060;-49
2023/08/30 20:39:39;;;;;;;7.28;2.30;;;;;;;17.36;63.07;100159.72;15601645;28;20065;-44
2023/08/30 20:47:14;;;;;;;4.45;2.35;;;;;;;17.57;62.64;100139.66;15600558;28;20069;-51
2023/08/30 20:54:47;;;;;;;17.10;8.13;;;;;;;17.26;63.90;100136.94;15598323;28;20034;-45
2023/08/30 21:02:21;;;;;;;4.88;2.67;;;;;;;17.18;63.96;100136.63;15594955;28;20045;-52
2023/08/30 21:09:57;;;;;;;4.80;2.83;;;;;;;17.01;64.95;100136.88;15618055;28;20124;-48
2023/08/30 21:17:36;;;;;;;4.97;2.78;;;;;;;17.48;63.68;100125.00;15613401;28;20141;-49
2023/08/30 21:25:19;;;;;;;6.38;3.33;;;;;;;16.87;65.29;100133.03;15616691;28;20589;-45
2023/08/30 21:33:00;;;;;;;5.53;3.50;;;;;;;17.06;64.92;100113.28;15616139;28;20095;-50
2023/08/30 21:40:37;;;;;;;6.07;3.50;;;;;;;17.03;64.85;100111.13;15614596;28;20045;-50
2023/08/30 21:48:15;;;;;;;4.90;3.70;;;;;;;17.31;64.01;100107.09;15622156;22;20051;-48
2023/08/30 21:55:55;;;;;;;4.50;3.70;;;;;;;17.09;65.00;100099.19;15620512;28;20601;-47
2023/08/30 22:03:40;;;;;;;5.65;4.32;;;;;;;17.10;64.95;100102.72;15617917;28;20080;-47
2023/08/30 22:11:16;;;;;;;7.55;5.10;;;;;;;16.58;67.19;100109.06;15617281;28;20042;-47
2023/08/30 22:18:51;;;;;;;6.05;4.80;;;;;;;16.67;67.27;100099.34;15617823;28;20051;-47
2023/08/30 22:26:25;;;;;;;5.85;4.57;;;;;;;16.98;66.33;100105.69;15604730;28;20133;-47
2023/08/30 22:34:00;;;;;;;7.85;4.80;;;;;;;17.04;66.50;100103.81;15615809;28;20137;-47
2023/08/30 22:41:34;;;;;;;5.82;4.68;;;;;;;16.62;66.63;100122.91;15617023;28;20045;-47
2023/08/30 22:49:08;;;;;;;;;;;;;;;16.54;68.71;100143.19;15618889;28;20049;-47
2023/08/30 22:56:42;;;;;;;6.22;4.43;;;;;;;16.49;69.12;100145.88;15616444;28;20002;-49
2023/08/30 23:04:17;;;;;;;7.35;4.20;;;;;;;16.82;67.13;100133.84;15616772;28;20132;-49
2023/08/30 23:11:51;;;;;;;5.80;3.88;;;;;;;16.48;67.40;100131.50;15613045;28;20065;-49
2023/08/30 23:19:25;;;;;;;5.88;3.70;;;;;;;16.80;66.90;100125.97;15616849;28;20068;-48
2023/08/30 23:27:00;;;;;;;5.15;3.97;;;;;;;16.98;65.87;100132.00;15608625;28;20242;-47
2023/08/30 23:34:34;;;;;;;7.43;4.00;;;;;;;16.94;66.70;100128.19;15595308;28;20034;-47
2023/08/30 23:42:07;;;;;;;5.75;4.22;;;;;;;16.86;66.27;100123.28;15599686;28;20041;-47
2023/08/30 23:49:41;;;;;;;;;;;;;;;16.87;66.75;100130.31;15576780;28;20137;-48
2023/08/30 23:57:15;;;;;;;6.38;4.00;;;;;;;16.83;67.41;100132.75;15614363;28;19921;-47
